createdAt,value
2019-04-04T00:03:58.899Z,10.45
2019-04-04T00:09:07.065Z,11.42
2019-04-04T00:14:15.140Z,11.57
2019-04-04T00:19:36.378Z,11.75
2019-04-04T00:24:23.613Z,13.36
2019-04-04T00:29:43.641Z,13.59
2019-04-04T00:34:31.792Z,16.08
2019-04-04T00:39:40.440Z,16.54
2019-04-04T00:45:00.253Z,16.41
2019-04-04T00:49:47.760Z,17.92
2019-04-04T00:54:54.895Z,17.48
2019-04-04T01:00:16.171Z,18.41
2019-04-04T01:05:16.152Z,17.77
2019-04-04T01:10:04.506Z,18.17
2019-04-04T01:15:11.702Z,18.87
2019-04-04T01:25:20.027Z,20.65
2019-04-04T01:30:41.699Z,22.97
2019-04-04T01:35:27.516Z,23.89
2019-04-04T01:40:48.945Z,22.50
2019-04-04T01:45:36.033Z,22.71
2019-04-04T01:50:44.197Z,22.63
2019-04-04T01:55:52.297Z,22.36
2019-04-04T02:01:00.568Z,22.43
2019-04-04T02:06:08.609Z,21.87
2019-04-04T02:11:29.655Z,21.13
2019-04-04T02:16:17.719Z,21.43
2019-04-04T02:21:28.461Z,21.29
2019-04-04T02:26:46.207Z,19.68
2019-04-04T02:31:34.573Z,20.73
2019-04-04T02:36:41.679Z,19.73
2019-04-04T02:41:50.073Z,19.40
2019-04-04T02:46:57.190Z,18.01
2019-04-04T02:52:05.415Z,16.67
2019-04-04T02:57:13.711Z,16.26
2019-04-04T03:02:21.121Z,16.80
2019-04-04T03:07:42.295Z,16.74
2019-04-04T03:12:43.576Z,17.23
2019-04-04T03:17:43.556Z,17.13
2019-04-04T03:22:31.931Z,16.89
2019-04-04T03:27:53.045Z,16.26
2019-04-04T03:32:41.508Z,15.03
2019-04-04T03:37:48.740Z,15.27
2019-04-04T03:43:09.937Z,15.33
2019-04-04T03:47:58.005Z,15.85
2019-04-04T03:53:18.065Z,15.74
2019-04-04T03:58:06.130Z,15.71
2019-04-04T04:03:14.470Z,15.40
2019-04-04T04:08:22.707Z,16.93
2019-04-04T04:13:30.144Z,14.97
2019-04-04T04:18:53.932Z,16.10
2019-04-04T04:23:37.531Z,16.67
2019-04-04T04:28:58.654Z,16.71
2019-04-04T04:33:45.948Z,15.68
2019-04-04T04:38:59.830Z,16.66
2019-04-04T04:44:05.625Z,15.27
2019-04-04T04:49:11.886Z,15.48
2019-04-04T04:54:32.159Z,16.78
2019-04-04T04:59:20.374Z,15.99
2019-04-04T05:04:40.608Z,16.44
2019-04-04T05:09:27.900Z,16.39
2019-04-04T05:14:47.964Z,16.57
2019-04-04T05:19:50.097Z,15.82
2019-04-04T05:24:36.507Z,16.06
2019-04-04T05:29:44.868Z,15.88
2019-04-04T05:34:51.152Z,16.28
2019-04-04T05:39:59.348Z,16.13
2019-04-04T05:45:06.981Z,16.22
2019-04-04T05:50:16.412Z,15.86
2019-04-04T05:55:23.179Z,17.17
2019-04-04T06:00:43.284Z,17.01
2019-04-04T06:05:31.838Z,16.62
2019-04-04T06:10:50.818Z,17.48
2019-04-04T06:15:51.022Z,17.78
2019-04-04T06:20:39.320Z,18.04
2019-04-04T06:31:04.877Z,17.61
2019-04-04T06:35:52.256Z,16.84
2019-04-04T06:41:00.838Z,17.01
2019-04-04T06:46:06.948Z,18.72
2019-04-04T06:51:27.114Z,18.06
2019-04-04T06:56:31.790Z,18.28
2019-04-04T07:01:28.627Z,19.39
2019-04-04T07:06:16.008Z,19.38
2019-04-04T07:11:23.277Z,20.60
2019-04-04T07:16:30.687Z,20.57
2019-04-04T07:26:43.240Z,22.49
2019-04-04T07:32:02.836Z,23.93
2019-04-04T07:37:03.141Z,24.18
2019-04-04T07:41:50.274Z,22.80
2019-04-04T07:46:58.624Z,23.82
2019-04-04T07:52:06.915Z,24.38
2019-04-04T07:57:17.235Z,22.73
2019-04-04T08:02:22.590Z,22.93
2019-04-04T08:12:48.597Z,21.78
2019-04-04T08:17:49.988Z,20.55
2019-04-04T08:22:50.118Z,20.57
2019-04-04T08:27:38.374Z,21.46
2019-04-04T08:38:03.089Z,21.43
2019-04-04T08:42:51.182Z,20.29
2019-04-04T08:47:59.567Z,18.85
2019-04-04T08:53:07.927Z,17.17
2019-04-04T08:58:15.525Z,16.29
2019-04-04T09:03:22.870Z,14.89
2019-04-04T09:08:30.264Z,15.11
2019-04-04T09:13:50.320Z,13.68
2019-04-04T09:18:38.660Z,13.59
2019-04-04T09:23:45.715Z,12.92
2019-04-04T09:28:53.987Z,11.17
2019-04-04T09:34:14.939Z,10.77
2019-04-04T09:39:03.151Z,7.87
2019-04-04T09:44:11.223Z,8.31
2019-04-04T09:49:32.304Z,8.52
2019-04-04T09:54:20.949Z,8.11
2019-04-04T09:59:32.175Z,8.08
2019-04-04T10:04:42.625Z,7.87
2019-04-04T10:09:42.838Z,7.44
2019-04-04T10:14:31.099Z,8.11
2019-04-04T10:19:38.461Z,7.79
2019-04-04T10:24:45.707Z,7.93
2019-04-04T10:29:53.427Z,7.57
2019-04-04T10:35:01.838Z,7.46
2019-04-04T10:40:10.029Z,7.41
2019-04-04T10:45:30.015Z,7.50
2019-04-04T10:50:17.643Z,7.84
2019-04-04T10:55:24.692Z,7.78
2019-04-04T11:00:45.941Z,6.97
2019-04-04T11:10:37.978Z,7.28
2019-04-04T11:15:45.181Z,7.35
2019-04-04T11:20:52.472Z,7.37
2019-04-04T11:26:12.813Z,6.17
2019-04-04T11:31:00.204Z,4.72
2019-04-04T11:41:09.295Z,4.22
2019-04-04T11:46:16.559Z,4.47
2019-04-04T11:51:23.702Z,3.32
2019-04-04T11:56:31.789Z,3.48
2019-04-04T12:01:52.957Z,3.46
2019-04-04T12:06:53.930Z,3.68
2019-04-04T12:11:42.004Z,3.82
2019-04-04T12:16:50.095Z,4.00
2019-04-04T12:21:58.381Z,4.02
2019-04-04T12:27:08.709Z,3.66
2019-04-04T12:32:16.463Z,4.16
2019-04-04T12:37:24.668Z,3.61
2019-04-04T12:42:44.890Z,4.41
2019-04-04T12:47:32.190Z,4.59
2019-04-04T12:52:39.562Z,4.58
2019-04-04T12:57:59.541Z,4.42
2019-04-04T13:02:48.003Z,6.00
2019-04-04T13:07:55.270Z,5.22
2019-04-04T13:18:04.410Z,6.33
2019-04-04T13:23:13.133Z,6.27
2019-04-04T13:28:20.338Z,6.74
2019-04-04T13:33:40.611Z,6.45
2019-04-04T13:38:27.834Z,6.92
2019-04-04T13:43:47.940Z,5.99
2019-04-04T13:48:36.306Z,5.45
2019-04-04T13:53:44.674Z,4.75
2019-04-04T13:58:52.690Z,4.44
2019-04-04T14:04:13.927Z,3.71
2019-04-04T14:09:02.160Z,2.69
2019-04-04T14:14:23.248Z,2.26
2019-04-04T14:19:24.370Z,2.23
2019-04-04T14:24:24.691Z,2.03
2019-04-04T14:29:27.740Z,1.79
2019-04-04T14:34:25.071Z,2.09
2019-04-04T14:39:13.203Z,6.33
2019-04-04T14:44:20.726Z,8.95
2019-04-04T14:49:40.874Z,3.37
2019-04-04T14:54:41.122Z,2.82
2019-04-04T15:04:33.310Z,12.67
2019-04-04T15:09:53.259Z,9.23
2019-04-04T15:14:54.499Z,16.26
2019-04-04T15:19:41.710Z,8.16
2019-04-04T15:25:02.096Z,3.70
2019-04-04T15:29:49.421Z,2.85
2019-04-04T15:35:09.732Z,3.17
2019-04-04T15:39:57.983Z,3.15
2019-04-04T15:45:05.353Z,2.78
2019-04-04T15:50:12.479Z,2.68
2019-04-04T15:55:20.662Z,2.65
2019-04-04T16:00:41.753Z,2.65
2019-04-04T16:05:42.039Z,2.48
2019-04-04T16:15:45.723Z,2.70
2019-04-04T16:20:46.684Z,1.94
2019-04-04T16:25:54.523Z,1.60
2019-04-04T16:30:55.615Z,1.73
2019-04-04T16:35:55.702Z,1.65
2019-04-04T16:40:56.815Z,2.19
2019-04-04T16:45:57.239Z,2.82
2019-04-04T16:50:57.244Z,3.18
2019-04-04T16:55:45.522Z,1.82
2019-04-04T17:00:52.624Z,1.85
2019-04-04T17:06:13.929Z,2.34
2019-04-04T17:11:13.957Z,1.81
2019-04-04T17:16:02.133Z,1.34
2019-04-04T17:21:12.284Z,1.04
2019-04-04T17:31:32.152Z,2.08
2019-04-04T17:36:21.451Z,1.94
2019-04-04T17:46:44.791Z,1.97
2019-04-04T17:51:44.679Z,2.17
2019-04-04T17:56:45.708Z,2.65
2019-04-04T18:01:46.656Z,2.12
2019-04-04T18:06:47.700Z,2.07
2019-04-04T18:11:35.949Z,2.07
2019-04-04T18:16:43.280Z,2.79
2019-04-04T18:22:03.389Z,2.66
2019-04-04T18:27:03.786Z,2.15
2019-04-04T18:32:03.893Z,6.68
2019-04-04T18:37:04.520Z,8.34
2019-04-04T18:42:04.360Z,8.89
2019-04-04T18:46:51.738Z,6.64
2019-04-04T18:57:02.669Z,6.11
2019-04-04T19:02:22.788Z,5.47
2019-04-04T19:07:22.995Z,5.19
2019-04-04T19:12:23.205Z,7.48
2019-04-04T19:17:23.450Z,7.13
2019-04-04T19:22:10.532Z,7.02
2019-04-04T19:27:18.885Z,11.65
2019-04-04T19:32:25.937Z,9.74
2019-04-04T19:37:54.428Z,9.24
2019-04-04T19:42:34.442Z,6.56
2019-04-04T19:47:41.664Z,7.09
2019-04-04T19:48:57.280Z,8.14
2019-04-04T19:54:04.396Z,8.36
2019-04-04T19:59:25.533Z,7.42
2019-04-04T20:04:13.753Z,7.56
2019-04-04T20:09:33.962Z,6.15
2019-04-04T20:14:35.148Z,10.21
2019-04-04T20:19:36.448Z,8.58
2019-04-04T20:24:24.854Z,6.05
2019-04-04T20:29:46.221Z,9.02
2019-04-04T20:34:46.374Z,8.23
2019-04-04T20:39:46.560Z,7.42
2019-04-04T20:44:34.815Z,4.30
2019-04-04T20:49:42.900Z,3.19
2019-04-04T20:54:50.948Z,4.50
2019-04-04T21:00:00.487Z,3.79
2019-04-04T21:05:07.650Z,3.16
2019-04-04T21:15:29.847Z,2.56
2019-04-04T21:20:30.091Z,2.37
2019-04-04T21:25:18.265Z,2.65
2019-04-04T21:30:25.723Z,2.86
2019-04-04T21:35:46.804Z,2.93
2019-04-04T21:40:34.242Z,3.44
2019-04-04T21:45:42.455Z,3.58
2019-04-04T21:50:52.052Z,3.34
2019-04-04T21:55:59.378Z,3.61
2019-04-04T22:01:06.665Z,3.37
2019-04-04T22:06:27.655Z,3.78
2019-04-04T22:11:15.916Z,4.63
2019-04-04T22:16:26.194Z,3.57
2019-04-04T22:21:37.404Z,3.66
2019-04-04T22:26:24.579Z,6.65
2019-04-04T22:31:45.762Z,8.34
2019-04-04T22:36:32.996Z,9.45
2019-04-04T22:41:40.223Z,9.01
2019-04-04T22:46:48.414Z,9.11
2019-04-04T22:51:55.589Z,9.47
2019-04-04T22:57:16.551Z,9.29
2019-04-04T23:02:04.846Z,9.61
2019-04-04T23:07:12.117Z,10.46
2019-04-04T23:12:20.515Z,12.19
2019-04-04T23:17:27.761Z,11.03
2019-04-04T23:22:35.001Z,12.63
2019-04-04T23:27:55.985Z,11.25
2019-04-04T23:32:57.463Z,10.02
2019-04-04T23:37:45.878Z,9.17
2019-04-04T23:42:53.139Z,5.90
2019-04-04T23:48:14.281Z,7.34
2019-04-04T23:53:14.764Z,6.10
2019-04-04T23:58:01.910Z,7.17
